createdAt,value
2022-11-25T00:01:03.128Z,49.10
2022-11-25T00:03:29.592Z,47.00
2022-11-25T00:05:56.094Z,40.50
2022-11-25T00:08:22.629Z,42.30
2022-11-25T00:10:49.064Z,50.30
2022-11-25T00:13:15.496Z,48.50
2022-11-25T00:15:42.340Z,46.70
2022-11-25T00:18:08.772Z,41.80
2022-11-25T00:20:36.539Z,30.10
2022-11-25T00:23:03.175Z,42.50
2022-11-25T00:25:29.541Z,37.30
2022-11-25T00:27:55.866Z,41.60
2022-11-25T00:30:24.010Z,42.00
2022-11-25T00:32:50.391Z,38.10
2022-11-25T00:35:16.774Z,40.90
2022-11-25T00:37:43.172Z,38.70
2022-11-25T00:40:10.028Z,37.50
2022-11-25T00:42:55.223Z,43.10
2022-11-25T00:45:22.553Z,42.10
2022-11-25T00:47:49.012Z,43.60
2022-11-25T00:50:17.812Z,48.00
2022-11-25T00:52:44.292Z,43.10
2022-11-25T00:55:11.919Z,36.50
2022-11-25T00:57:38.325Z,37.60
2022-11-25T01:00:05.783Z,36.30
2022-11-25T01:02:32.242Z,43.10
2022-11-25T01:04:58.828Z,31.10
2022-11-25T01:07:25.237Z,34.80
2022-11-25T01:09:51.823Z,41.30
2022-11-25T01:12:18.326Z,43.80
2022-11-25T01:14:44.799Z,42.50
2022-11-25T01:17:13.738Z,41.00
2022-11-25T01:19:41.444Z,38.90
2022-11-25T01:22:07.981Z,37.50
2022-11-25T01:24:35.060Z,33.90
2022-11-25T01:27:01.692Z,38.40
2022-11-25T01:29:28.153Z,39.30
2022-11-25T01:31:55.991Z,37.30
2022-11-25T01:34:23.934Z,36.70
2022-11-25T01:36:50.459Z,34.10
2022-11-25T01:39:18.135Z,36.10
2022-11-25T01:41:44.712Z,37.00
2022-11-25T01:44:16.139Z,39.50
2022-11-25T01:46:48.592Z,38.70
2022-11-25T01:49:32.869Z,40.30
2022-11-25T01:52:02.146Z,38.10
2022-11-25T01:54:30.610Z,41.10
2022-11-25T01:57:00.125Z,40.10
2022-11-25T01:59:27.223Z,37.80
2022-11-25T02:01:54.191Z,45.20
2022-11-25T02:04:22.088Z,43.60
2022-11-25T02:06:54.837Z,45.60
2022-11-25T02:09:21.819Z,48.50
2022-11-25T02:11:48.579Z,57.20
2022-11-25T02:14:16.362Z,52.00
2022-11-25T02:16:42.935Z,52.50
2022-11-25T02:19:15.729Z,41.40
2022-11-25T02:21:45.249Z,41.30
2022-11-25T02:24:23.586Z,41.30
2022-11-25T02:26:49.966Z,39.90
2022-11-25T02:29:16.341Z,38.00
2022-11-25T02:31:43.549Z,41.40
2022-11-25T02:34:10.421Z,42.20
2022-11-25T02:36:36.815Z,45.70
2022-11-25T02:39:03.727Z,45.00
2022-11-25T02:41:47.330Z,42.90
2022-11-25T02:44:13.969Z,37.00
2022-11-25T02:46:40.451Z,37.60
2022-11-25T02:49:09.429Z,37.40
2022-11-25T02:51:37.575Z,38.30
2022-11-25T02:54:04.146Z,45.30
2022-11-25T02:56:33.408Z,42.30
2022-11-25T02:59:00.475Z,40.20
2022-11-25T03:01:28.036Z,41.60
2022-11-25T03:03:54.549Z,35.60
2022-11-25T03:06:21.082Z,36.60
2022-11-25T03:08:47.558Z,38.00
2022-11-25T03:11:14.009Z,41.70
2022-11-25T03:13:40.586Z,31.80
2022-11-25T03:16:08.272Z,34.80
2022-11-25T03:18:34.783Z,40.70
2022-11-25T03:21:01.544Z,35.60
2022-11-25T03:23:28.181Z,32.00
2022-11-25T03:25:55.853Z,30.80
2022-11-25T03:28:22.977Z,33.20
2022-11-25T03:30:49.614Z,42.20
2022-11-25T03:33:16.045Z,35.60
2022-11-25T03:35:42.990Z,38.60
2022-11-25T03:38:09.455Z,33.80
2022-11-25T03:40:36.799Z,28.30
2022-11-25T03:43:04.751Z,35.60
2022-11-25T03:45:31.207Z,37.90
2022-11-25T03:47:58.765Z,42.90
2022-11-25T03:50:25.740Z,35.40
2022-11-25T03:52:53.633Z,37.10
2022-11-25T03:55:20.400Z,39.70
2022-11-25T03:57:47.099Z,37.20
2022-11-25T04:00:13.876Z,36.50
2022-11-25T04:03:00.585Z,33.40
2022-11-25T04:05:27.256Z,32.30
2022-11-25T04:07:57.933Z,38.40
2022-11-25T04:10:24.786Z,41.40
2022-11-25T04:12:51.884Z,36.40
2022-11-25T04:15:21.425Z,41.00
2022-11-25T04:17:51.900Z,37.20
2022-11-25T04:20:19.028Z,48.70
2022-11-25T04:22:50.588Z,37.80
2022-11-25T04:25:17.628Z,37.10
2022-11-25T04:27:44.369Z,38.70
2022-11-25T04:30:11.726Z,28.50
2022-11-25T04:32:40.055Z,37.80
2022-11-25T04:35:07.457Z,57.20
2022-11-25T04:37:34.504Z,55.80
2022-11-25T04:40:00.936Z,41.00
2022-11-25T04:42:32.416Z,36.40
2022-11-25T04:45:22.089Z,36.60
2022-11-25T04:47:48.396Z,40.60
2022-11-25T04:50:16.251Z,41.60
2022-11-25T04:52:51.617Z,42.80
2022-11-25T04:55:18.159Z,38.90
2022-11-25T04:57:44.756Z,38.50
2022-11-25T05:00:12.319Z,30.30
2022-11-25T05:02:38.892Z,35.50
2022-11-25T05:05:11.232Z,37.40
2022-11-25T05:07:38.522Z,40.80
2022-11-25T05:10:05.853Z,37.60
2022-11-25T05:12:45.191Z,29.10
2022-11-25T05:15:15.417Z,28.70
2022-11-25T05:17:43.927Z,36.40
2022-11-25T05:20:10.801Z,33.40
2022-11-25T05:22:38.028Z,32.60
2022-11-25T05:25:05.750Z,36.20
2022-11-25T05:27:34.234Z,30.40
2022-11-25T05:30:04.473Z,30.30
2022-11-25T05:32:31.602Z,32.20
2022-11-25T05:34:58.755Z,36.40
2022-11-25T05:37:25.191Z,32.90
2022-11-25T05:39:57.949Z,31.30
2022-11-25T05:42:47.387Z,39.20
2022-11-25T05:45:13.717Z,31.40
2022-11-25T05:47:40.167Z,35.60
2022-11-25T05:50:07.458Z,31.80
2022-11-25T05:52:34.103Z,34.20
2022-11-25T05:55:01.143Z,28.60
2022-11-25T05:57:28.551Z,27.60
2022-11-25T06:00:07.959Z,34.90
2022-11-25T06:02:44.900Z,35.00
2022-11-25T06:05:13.262Z,37.50
2022-11-25T06:07:39.906Z,36.90
2022-11-25T06:10:07.396Z,35.70
2022-11-25T06:12:35.191Z,36.50
2022-11-25T06:15:01.695Z,33.60
2022-11-25T06:17:28.433Z,29.40
2022-11-25T06:20:15.344Z,31.50
2022-11-25T06:22:42.087Z,26.10
2022-11-25T06:25:08.647Z,25.80
2022-11-25T06:28:04.646Z,25.30
2022-11-25T06:39:35.737Z,24.20
2022-11-25T06:42:02.200Z,25.60
2022-11-25T06:44:28.558Z,22.80
2022-11-25T06:46:56.428Z,18.10
2022-11-25T06:49:22.914Z,30.80
2022-11-25T06:51:49.864Z,21.30
2022-11-25T06:54:16.769Z,22.40
2022-11-25T06:56:43.160Z,31.40
2022-11-25T06:59:09.576Z,37.10
2022-11-25T07:01:36.238Z,28.50
2022-11-25T07:04:04.125Z,22.90
2022-11-25T07:06:31.363Z,28.90
2022-11-25T07:08:58.180Z,27.60
2022-11-25T07:11:25.937Z,36.30
2022-11-25T07:13:53.902Z,31.90
2022-11-25T07:16:20.592Z,42.10
2022-11-25T07:18:47.072Z,51.50
2022-11-25T07:21:21.188Z,41.30
2022-11-25T07:23:48.133Z,34.00
2022-11-25T07:26:16.511Z,31.40
2022-11-25T07:28:43.644Z,56.20
2022-11-25T07:31:23.899Z,37.90
2022-11-25T07:33:52.873Z,42.10
2022-11-25T07:36:19.652Z,41.30
2022-11-25T07:38:46.919Z,38.50
2022-11-25T07:41:15.284Z,40.00
2022-11-25T07:43:45.609Z,37.20
2022-11-25T07:46:12.907Z,32.40
2022-11-25T07:48:40.040Z,22.70
2022-11-25T07:51:32.911Z,21.80
2022-11-25T07:54:00.458Z,23.10
2022-11-25T07:56:27.478Z,24.20
2022-11-25T07:58:54.516Z,20.50
2022-11-25T08:01:21.316Z,24.20
2022-11-25T08:03:48.407Z,28.70
2022-11-25T08:06:16.702Z,27.30
2022-11-25T08:08:43.471Z,25.60
2022-11-25T08:11:11.503Z,20.80
2022-11-25T08:13:38.132Z,18.90
2022-11-25T08:16:05.141Z,61.80
2022-11-25T08:18:32.024Z,45.70
2022-11-25T08:21:04.190Z,56.60
2022-11-25T08:23:32.286Z,57.20
2022-11-25T08:26:09.903Z,42.50
2022-11-25T08:28:36.909Z,26.90
2022-11-25T08:31:08.105Z,37.90
2022-11-25T08:36:00.887Z,32.70
2022-11-25T08:38:27.988Z,30.00
2022-11-25T08:40:55.114Z,35.80
2022-11-25T08:43:26.373Z,38.90
2022-11-25T08:45:55.876Z,64.30
2022-11-25T08:48:22.292Z,55.50
2022-11-25T08:50:50.383Z,41.50
2022-11-25T08:53:16.902Z,42.30
2022-11-25T08:55:43.675Z,28.00
2022-11-25T08:58:12.450Z,21.80
2022-11-25T09:00:39.691Z,31.00
2022-11-25T09:03:06.400Z,25.90
2022-11-25T09:05:36.435Z,45.40
2022-11-25T09:08:03.867Z,39.80
2022-11-25T09:10:30.743Z,40.70
2022-11-25T09:12:57.378Z,40.50
2022-11-25T09:15:23.792Z,38.30
2022-11-25T09:17:57.163Z,26.30
2022-11-25T09:20:23.640Z,33.60
2022-11-25T09:22:50.120Z,39.10
2022-11-25T09:25:16.574Z,30.10
2022-11-25T09:27:43.046Z,39.50
2022-11-25T09:30:09.824Z,67.10
2022-11-25T09:32:36.335Z,50.80
2022-11-25T09:35:03.164Z,30.30
2022-11-25T09:37:29.519Z,39.80
2022-11-25T09:39:56.276Z,39.10
2022-11-25T09:42:47.908Z,35.90
2022-11-25T09:45:42.559Z,30.90
2022-11-25T09:48:08.930Z,43.60
2022-11-25T09:51:00.711Z,37.90
2022-11-25T09:53:33.390Z,33.90
2022-11-25T09:56:02.410Z,36.40
2022-11-25T09:58:36.946Z,29.30
2022-11-25T10:01:11.636Z,29.70
2022-11-25T10:03:38.203Z,29.80
2022-11-25T10:06:10.821Z,25.40
2022-11-25T10:08:38.987Z,27.80
2022-11-25T10:11:21.203Z,33.50
2022-11-25T10:13:52.213Z,25.00
2022-11-25T10:16:43.974Z,30.30
2022-11-25T10:19:25.784Z,31.90
2022-11-25T10:21:52.228Z,37.50
2022-11-25T10:24:20.671Z,30.20
2022-11-25T10:26:57.548Z,23.90
2022-11-25T10:29:29.335Z,20.40
2022-11-25T10:32:05.028Z,22.80
2022-11-25T10:34:35.758Z,28.90
2022-11-25T10:37:04.813Z,25.90
2022-11-25T10:39:33.300Z,30.30
2022-11-25T10:42:04.025Z,25.10
2022-11-25T10:44:34.136Z,18.60
2022-11-25T10:47:19.861Z,22.90
2022-11-25T10:50:05.541Z,51.40
2022-11-25T10:52:34.715Z,15.40
2022-11-25T10:55:09.151Z,21.30
2022-11-25T10:57:35.718Z,23.40
2022-11-25T11:00:04.034Z,25.30
2022-11-25T11:02:37.381Z,22.90
2022-11-25T11:05:07.053Z,19.10
2022-11-25T11:07:38.068Z,17.50
2022-11-25T11:10:13.851Z,19.80
2022-11-25T11:12:54.140Z,21.30
2022-11-25T11:15:22.480Z,33.20
2022-11-25T11:17:49.329Z,32.90
2022-11-25T11:20:20.879Z,33.40
2022-11-25T11:23:04.154Z,21.00
2022-11-25T11:25:35.385Z,19.70
2022-11-25T11:28:02.724Z,19.20
2022-11-25T11:30:30.597Z,25.70
2022-11-25T11:33:03.020Z,20.70
2022-11-25T11:35:44.882Z,18.60
2022-11-25T11:38:23.717Z,19.20
2022-11-25T11:40:53.387Z,18.60
2022-11-25T11:43:38.493Z,23.00
2022-11-25T11:46:10.945Z,32.60
2022-11-25T11:48:45.383Z,23.40
2022-11-25T11:51:32.457Z,23.10
2022-11-25T11:54:15.787Z,17.90
2022-11-25T11:57:14.988Z,18.30
2022-11-25T11:59:48.314Z,24.40
2022-11-25T12:02:14.755Z,17.20
2022-11-25T12:04:41.248Z,15.60
2022-11-25T12:07:18.051Z,15.60
2022-11-25T12:09:49.554Z,13.90
2022-11-25T12:15:17.288Z,16.40
2022-11-25T12:17:48.099Z,15.70
2022-11-25T12:20:25.625Z,16.70
2022-11-25T12:22:57.267Z,18.20
2022-11-25T12:25:26.493Z,18.40
2022-11-25T12:28:08.614Z,15.20
2022-11-25T12:33:58.264Z,18.70
2022-11-25T12:36:35.436Z,16.80
2022-11-25T12:39:13.046Z,16.00
2022-11-25T12:41:58.502Z,16.10
2022-11-25T12:44:30.897Z,15.80
2022-11-25T12:46:57.752Z,21.40
2022-11-25T12:49:25.839Z,19.90
2022-11-25T12:51:55.292Z,14.50
2022-11-25T12:54:32.191Z,22.90
2022-11-25T12:57:08.022Z,18.80
2022-11-25T13:00:06.074Z,17.90
2022-11-25T13:02:51.672Z,37.80
2022-11-25T13:05:39.952Z,44.80
2022-11-25T13:08:10.272Z,17.10
2022-11-25T13:10:43.135Z,17.20
2022-11-25T13:13:22.148Z,14.60
2022-11-25T13:15:51.409Z,15.70
2022-11-25T13:18:20.462Z,18.10
2022-11-25T13:20:48.337Z,24.90
2022-11-25T13:23:17.563Z,16.60
2022-11-25T13:25:45.193Z,15.30
2022-11-25T13:28:44.895Z,15.70
2022-11-25T13:31:22.843Z,25.20
2022-11-25T13:33:49.538Z,18.50
2022-11-25T13:36:16.009Z,17.30
2022-11-25T13:38:49.108Z,19.20
2022-11-25T13:41:15.717Z,43.90
2022-11-25T13:43:56.659Z,17.90
2022-11-25T13:46:37.557Z,19.40
2022-11-25T13:49:05.376Z,14.60
2022-11-25T13:51:31.951Z,21.80
2022-11-25T13:54:00.228Z,25.10
2022-11-25T13:56:36.113Z,19.00
2022-11-25T13:59:11.837Z,14.90
2022-11-25T14:01:39.848Z,15.80
2022-11-25T14:04:11.454Z,14.40
2022-11-25T14:06:51.939Z,16.70
2022-11-25T14:09:21.317Z,14.10
2022-11-25T14:11:47.723Z,17.70
2022-11-25T14:14:26.278Z,20.40
2022-11-25T14:16:52.652Z,20.00
2022-11-25T14:22:17.717Z,28.50
2022-11-25T14:24:45.414Z,22.80
2022-11-25T14:27:16.529Z,29.40
2022-11-25T14:29:45.781Z,17.90
2022-11-25T14:32:20.188Z,29.80
2022-11-25T14:34:56.853Z,27.60
2022-11-25T14:37:27.460Z,28.40
2022-11-25T14:40:08.379Z,24.90
2022-11-25T14:42:36.919Z,26.20
2022-11-25T14:45:18.844Z,20.80
2022-11-25T14:47:45.260Z,34.20
2022-11-25T14:53:05.476Z,30.40
2022-11-25T14:55:31.833Z,24.70
2022-11-25T14:57:58.323Z,22.90
2022-11-25T15:00:24.918Z,25.60
2022-11-25T15:03:02.165Z,26.00
2022-11-25T15:05:34.192Z,30.60
2022-11-25T15:08:02.617Z,24.90
2022-11-25T15:10:33.570Z,32.50
2022-11-25T15:13:00.556Z,45.50
2022-11-25T15:15:27.196Z,35.60
2022-11-25T15:17:54.675Z,37.10
2022-11-25T15:20:22.619Z,40.30
2022-11-25T15:22:50.422Z,43.90
2022-11-25T17:09:34.425Z,37.20
2022-11-25T17:12:33.641Z,42.10
2022-11-25T17:15:06.654Z,43.20
2022-11-25T17:17:33.593Z,65.30
2022-11-25T17:20:00.205Z,52.60
2022-11-25T17:22:27.909Z,55.00
2022-11-25T17:24:54.336Z,70.40
2022-11-25T17:27:28.954Z,50.90
2022-11-25T17:29:56.498Z,44.50
2022-11-25T17:32:23.276Z,46.00
2022-11-25T17:34:49.925Z,36.10
2022-11-25T17:37:22.441Z,32.20
2022-11-25T17:39:49.425Z,37.00
2022-11-25T17:42:16.849Z,29.40
2022-11-25T17:44:47.542Z,28.90
2022-11-25T17:47:16.940Z,28.40
2022-11-25T17:49:45.276Z,32.80
2022-11-25T17:52:11.662Z,33.40
2022-11-25T17:54:38.910Z,33.50
2022-11-25T17:57:06.346Z,39.10
2022-11-25T17:59:33.336Z,33.60
2022-11-25T18:01:59.996Z,30.40
2022-11-25T18:04:36.081Z,33.90
2022-11-25T18:07:02.910Z,27.80
2022-11-25T18:09:29.635Z,40.50
2022-11-25T18:11:57.839Z,37.50
2022-11-25T18:14:29.661Z,31.90
2022-11-25T18:16:57.437Z,32.20
2022-11-25T18:19:23.969Z,34.30
2022-11-25T18:21:50.383Z,41.20
2022-11-25T18:24:16.915Z,40.80
2022-11-25T18:26:45.089Z,61.00
2022-11-25T18:29:13.780Z,51.80
2022-11-25T18:31:40.456Z,42.50
2022-11-25T18:34:14.004Z,50.20
2022-11-25T18:36:40.482Z,44.90
2022-11-25T18:39:09.546Z,48.20
2022-11-25T18:41:37.307Z,72.70
2022-11-25T18:44:04.570Z,84.00
2022-11-25T18:46:33.869Z,71.20
2022-11-25T18:49:00.240Z,78.60
2022-11-25T18:51:26.731Z,86.70
2022-11-25T18:53:53.102Z,108.30
2022-11-25T18:56:19.592Z,82.50
2022-11-25T18:58:49.199Z,69.70
2022-11-25T19:01:16.116Z,63.10
2022-11-25T19:03:42.691Z,66.30
2022-11-25T19:06:18.133Z,48.30
2022-11-25T19:08:44.867Z,51.40
2022-11-25T19:11:16.725Z,51.30
2022-11-25T19:13:48.458Z,46.10
2022-11-25T19:16:16.071Z,55.50
2022-11-25T19:18:43.914Z,63.10
2022-11-25T19:21:18.157Z,73.90
2022-11-25T19:23:44.836Z,69.90
2022-11-25T19:26:13.820Z,63.00
2022-11-25T19:28:40.942Z,70.70
2022-11-25T19:31:09.184Z,59.20
2022-11-25T19:33:37.063Z,66.50
2022-11-25T19:36:04.299Z,45.60
2022-11-25T19:38:32.293Z,50.60
2022-11-25T19:40:58.779Z,91.10
2022-11-25T19:43:28.193Z,169.30
2022-11-25T19:45:55.536Z,74.50
2022-11-25T19:48:24.282Z,101.10
2022-11-25T19:50:58.886Z,79.10
2022-11-25T19:53:30.186Z,58.60
2022-11-25T19:56:03.240Z,58.00
2022-11-25T19:58:29.746Z,39.60
2022-11-25T20:00:56.534Z,40.00
2022-11-25T20:03:24.857Z,31.60
2022-11-25T20:05:52.543Z,28.10
2022-11-25T20:08:22.469Z,26.20
2022-11-25T20:10:49.534Z,30.20
2022-11-25T20:13:15.998Z,26.10
2022-11-25T20:15:43.174Z,23.60
2022-11-25T20:18:17.917Z,26.10
2022-11-25T20:20:46.589Z,24.40
2022-11-25T20:23:15.592Z,36.50
2022-11-25T20:25:43.395Z,44.10
2022-11-25T20:28:26.880Z,41.40
2022-11-25T20:30:53.452Z,53.60
2022-11-25T20:33:24.246Z,39.60
2022-11-25T20:38:18.957Z,35.80
2022-11-25T20:40:47.662Z,35.40
2022-11-25T20:43:29.251Z,38.90
2022-11-25T20:45:56.138Z,33.20
2022-11-25T20:48:23.248Z,31.70
2022-11-25T20:50:49.824Z,34.40
2022-11-25T20:53:17.342Z,45.50
2022-11-25T20:55:44.826Z,46.00
2022-11-25T20:58:19.510Z,44.80
2022-11-25T21:00:46.337Z,42.90
2022-11-25T21:03:12.789Z,45.60
2022-11-25T21:05:39.496Z,42.10
2022-11-25T21:08:12.121Z,44.10
2022-11-25T21:10:38.838Z,40.50
2022-11-25T21:13:10.313Z,52.40
2022-11-25T21:15:36.733Z,35.00
2022-11-25T21:18:03.257Z,32.00
2022-11-25T21:20:29.998Z,45.30
2022-11-25T21:23:04.891Z,51.90
2022-11-25T21:25:32.285Z,50.00
2022-11-25T21:27:59.230Z,46.60
2022-11-25T21:30:27.197Z,51.40
2022-11-25T21:32:55.189Z,63.50
2022-11-25T21:35:22.421Z,80.90
2022-11-25T21:37:48.855Z,62.40
2022-11-25T21:40:21.475Z,61.30
2022-11-25T21:42:48.067Z,50.20
2022-11-25T21:45:17.817Z,56.10
2022-11-25T21:47:44.416Z,37.10
2022-11-25T21:50:14.962Z,54.50
2022-11-25T21:52:41.378Z,46.40
2022-11-25T21:55:09.489Z,40.90
2022-11-25T21:57:35.920Z,36.40
2022-11-25T22:00:03.238Z,40.20
2022-11-25T22:02:32.053Z,50.40
2022-11-25T22:04:58.894Z,47.70
2022-11-25T22:07:30.592Z,56.60
2022-11-25T22:09:57.570Z,83.20
2022-11-25T22:12:28.136Z,76.00
2022-11-25T22:14:55.936Z,63.50
2022-11-25T22:17:22.412Z,61.20
2022-11-25T22:19:48.936Z,50.00
2022-11-25T22:22:15.985Z,45.50
2022-11-25T22:24:42.555Z,40.40
2022-11-25T22:27:18.080Z,34.30
2022-11-25T22:29:44.522Z,35.50
2022-11-25T22:32:13.317Z,32.10
2022-11-25T22:34:40.113Z,34.20
2022-11-25T22:37:24.682Z,40.50
2022-11-25T22:39:51.028Z,33.00
2022-11-25T22:42:23.459Z,35.00
2022-11-25T22:44:50.231Z,42.20
2022-11-25T22:47:22.607Z,38.20
2022-11-25T22:49:49.551Z,26.60
2022-11-25T22:52:22.231Z,28.30
2022-11-25T22:54:49.075Z,25.30
2022-11-25T22:57:15.689Z,26.20
2022-11-25T22:59:42.655Z,27.80
2022-11-25T23:02:14.590Z,17.70
2022-11-25T23:04:41.176Z,23.40
2022-11-25T23:07:19.011Z,21.20
2022-11-25T23:09:45.386Z,20.40
2022-11-25T23:12:15.315Z,21.60
2022-11-25T23:20:50.684Z,30.40
2022-11-25T23:23:41.795Z,26.40
2022-11-25T23:26:12.349Z,26.10
2022-11-25T23:28:39.625Z,25.20
2022-11-25T23:31:06.067Z,27.70
2022-11-25T23:33:37.870Z,24.80
2022-11-25T23:36:12.515Z,23.60
2022-11-25T23:38:44.285Z,30.10
2022-11-25T23:41:24.677Z,27.20
2022-11-25T23:43:51.611Z,29.90
2022-11-25T23:46:20.215Z,19.00
2022-11-25T23:48:56.238Z,24.20
2022-11-25T23:51:23.763Z,26.60
2022-11-25T23:53:51.013Z,28.20
2022-11-25T23:56:17.960Z,26.90
2022-11-25T23:58:44.497Z,29.10
